createdAt,value
2023-03-06T00:01:10.968Z,96359.94
2023-03-06T00:03:37.501Z,96360.34
2023-03-06T00:06:04.076Z,96355.03
2023-03-06T00:08:30.547Z,96350.91
2023-03-06T00:10:56.958Z,96352.97
2023-03-06T00:13:23.385Z,96356.66
2023-03-06T00:15:49.989Z,96357.91
2023-03-06T00:18:16.457Z,96361.38
2023-03-06T00:20:42.910Z,96357.09
2023-03-06T00:23:09.327Z,96355.88
2023-03-06T00:25:35.712Z,96348.88
2023-03-06T00:28:02.161Z,96349.84
2023-03-06T00:30:28.749Z,96356.66
2023-03-06T00:32:55.213Z,96356.66
2023-03-06T00:35:21.702Z,96350.91
2023-03-06T00:37:48.125Z,96341.03
2023-03-06T00:40:14.541Z,96347.59
2023-03-06T00:42:40.986Z,96350.47
2023-03-06T00:45:07.428Z,96350.66
2023-03-06T00:47:33.918Z,96352.53
2023-03-06T00:50:00.433Z,96352.53
2023-03-06T00:52:26.886Z,96351.88
2023-03-06T00:54:53.332Z,96346.75
2023-03-06T00:57:19.957Z,96347.16
2023-03-06T00:59:49.323Z,96345.88
2023-03-06T01:02:15.838Z,96340.53
2023-03-06T01:04:42.235Z,96346.25
2023-03-06T01:07:08.709Z,96341.13
2023-03-06T01:09:35.110Z,96335.38
2023-03-06T01:12:01.548Z,96326.84
2023-03-06T01:14:27.961Z,96330.75
2023-03-06T01:16:54.403Z,96327.94
2023-03-06T01:19:20.816Z,96321.75
2023-03-06T01:21:47.275Z,96328.13
2023-03-06T01:24:13.738Z,96317.72
2023-03-06T01:26:40.200Z,96313.81
2023-03-06T01:29:06.625Z,96315.84
2023-03-06T01:31:33.163Z,96309.72
2023-03-06T01:33:59.730Z,96306.63
2023-03-06T01:36:26.198Z,96300.91
2023-03-06T01:38:52.687Z,96294.75
2023-03-06T01:41:19.154Z,96297.63
2023-03-06T01:43:45.597Z,96284.66
2023-03-06T01:46:12.070Z,96280.13
2023-03-06T01:48:38.470Z,96289.19
2023-03-06T01:51:04.845Z,96281.78
2023-03-06T01:53:31.240Z,96282.59
2023-03-06T01:55:57.686Z,96274.38
2023-03-06T01:58:24.131Z,96274.78
2023-03-06T02:00:50.553Z,96264.97
2023-03-06T02:03:17.009Z,96265.75
2023-03-06T02:05:43.404Z,96260.41
2023-03-06T02:08:09.773Z,96253.84
2023-03-06T02:10:36.202Z,96248.13
2023-03-06T02:13:02.671Z,96250.78
2023-03-06T02:15:29.106Z,96243.41
2023-03-06T02:17:55.588Z,96248.16
2023-03-06T02:20:22.018Z,96242.59
2023-03-06T02:22:48.664Z,96243.25
2023-03-06T02:25:15.180Z,96248.94
2023-03-06T02:27:41.656Z,96247.91
2023-03-06T02:30:08.159Z,96248.53
2023-03-06T02:32:34.634Z,96239.50
2023-03-06T02:35:01.141Z,96240.31
2023-03-06T02:37:27.573Z,96240.50
2023-03-06T02:39:54.024Z,96236.19
2023-03-06T02:42:20.468Z,96240.91
2023-03-06T02:44:46.924Z,96244.00
2023-03-06T02:47:13.296Z,96234.97
2023-03-06T02:49:39.721Z,96238.88
2023-03-06T02:52:06.107Z,96234.97
2023-03-06T02:54:32.537Z,96244.81
2023-03-06T02:56:59.162Z,96241.09
2023-03-06T02:59:25.575Z,96237.81
2023-03-06T03:01:52.037Z,96236.16
2023-03-06T03:04:18.527Z,96228.16
2023-03-06T03:06:45.038Z,96215.84
2023-03-06T03:09:11.413Z,96215.03
2023-03-06T03:11:37.965Z,96211.75
2023-03-06T03:14:04.390Z,96216.03
2023-03-06T03:16:30.819Z,96217.66
2023-03-06T03:18:57.266Z,96215.84
2023-03-06T03:21:23.833Z,96214.19
2023-03-06T03:23:50.320Z,96217.66
2023-03-06T03:26:16.769Z,96217.25
2023-03-06T03:28:43.227Z,96225.06
2023-03-06T03:31:09.744Z,96225.75
2023-03-06T03:33:36.479Z,96222.06
2023-03-06T03:36:02.977Z,96213.03
2023-03-06T03:38:29.421Z,96216.63
2023-03-06T03:40:55.879Z,96223.66
2023-03-06T03:43:22.320Z,96229.03
2023-03-06T03:45:50.322Z,96232.97
2023-03-06T03:48:16.744Z,96230.72
2023-03-06T03:50:43.186Z,96226.63
2023-03-06T03:53:09.681Z,96227.28
2023-03-06T03:55:36.081Z,96219.06
2023-03-06T03:58:02.511Z,96220.28
2023-03-06T04:00:28.946Z,96213.09
2023-03-06T04:02:55.365Z,96218.22
2023-03-06T04:05:21.773Z,96212.91
2023-03-06T04:07:48.123Z,96214.75
2023-03-06T04:10:14.585Z,96221.50
2023-03-06T04:12:41.016Z,96212.03
2023-03-06T04:15:07.487Z,96215.56
2023-03-06T04:17:33.991Z,96213.50
2023-03-06T04:20:00.438Z,96210.03
2023-03-06T04:22:26.867Z,96205.25
2023-03-06T04:24:53.393Z,96198.06
2023-03-06T04:27:20.021Z,96201.78
2023-03-06T04:29:46.522Z,96201.59
2023-03-06T04:32:13.018Z,96194.44
2023-03-06T04:34:39.584Z,96199.56
2023-03-06T04:37:06.018Z,96194.44
2023-03-06T04:39:32.473Z,96197.91
2023-03-06T04:41:58.936Z,96204.69
2023-03-06T04:44:25.507Z,96209.81
2023-03-06T04:46:51.949Z,96205.69
2023-03-06T04:49:18.374Z,96202.63
2023-03-06T04:51:44.779Z,96205.66
2023-03-06T04:54:11.229Z,96213.25
2023-03-06T04:56:37.754Z,96213.03
2023-03-06T04:59:04.284Z,96208.53
2023-03-06T05:01:30.665Z,96212.25
2023-03-06T05:03:57.127Z,96207.91
2023-03-06T05:06:25.691Z,96207.25
2023-03-06T05:08:52.110Z,96215.88
2023-03-06T05:11:18.549Z,96214.88
2023-03-06T05:13:44.930Z,96209.94
2023-03-06T05:16:11.434Z,96214.22
2023-03-06T05:18:37.907Z,96208.22
2023-03-06T05:21:04.347Z,96209.88
2023-03-06T05:23:30.708Z,96205.16
2023-03-06T05:25:57.141Z,96213.16
2023-03-06T05:28:23.573Z,96205.16
2023-03-06T05:30:50.107Z,96207.56
2023-03-06T05:33:16.613Z,96202.69
2023-03-06T05:35:43.066Z,96204.09
2023-03-06T05:38:09.828Z,96208.78
2023-03-06T05:40:36.644Z,96210.25
2023-03-06T05:43:03.083Z,96211.44
2023-03-06T05:45:29.540Z,96209.81
2023-03-06T05:47:55.960Z,96211.66
2023-03-06T05:50:22.388Z,96212.56
2023-03-06T05:52:48.820Z,96218.97
2023-03-06T05:55:15.230Z,96220.44
2023-03-06T05:57:41.856Z,96228.88
2023-03-06T06:00:08.265Z,96225.22
2023-03-06T06:02:34.745Z,96228.34
2023-03-06T06:05:01.220Z,96232.94
2023-03-06T06:07:27.716Z,96224.97
2023-03-06T06:09:54.177Z,96222.31
2023-03-06T06:12:20.589Z,96216.78
2023-03-06T06:14:46.958Z,96217.41
2023-03-06T06:17:13.406Z,96215.38
2023-03-06T06:19:39.876Z,96218.88
2023-03-06T06:22:06.470Z,96218.47
2023-03-06T06:24:32.951Z,96217.63
2023-03-06T06:27:00.950Z,96221.34
2023-03-06T06:29:29.029Z,96217.84
2023-03-06T06:31:55.403Z,96222.34
2023-03-06T06:34:21.766Z,96221.94
2023-03-06T06:36:48.277Z,96231.34
2023-03-06T06:39:14.847Z,96228.13
2023-03-06T06:41:59.450Z,96225.22
2023-03-06T06:44:27.681Z,96231.00
2023-03-06T06:49:40.462Z,96232.06
2023-03-06T06:52:06.911Z,96238.03
2023-03-06T06:54:33.401Z,96234.13
2023-03-06T06:56:59.924Z,96229.59
2023-03-06T06:59:26.518Z,96236.38
2023-03-06T07:01:53.164Z,96235.19
2023-03-06T07:04:19.748Z,96236.34
2023-03-06T07:06:46.278Z,96243.72
2023-03-06T07:09:12.757Z,96240.25
2023-03-06T07:11:39.168Z,96237.84
2023-03-06T07:14:05.654Z,96238.25
2023-03-06T07:16:32.316Z,96241.56
2023-03-06T07:18:58.763Z,96245.66
2023-03-06T07:21:25.234Z,96252.22
2023-03-06T07:23:51.764Z,96250.38
2023-03-06T07:26:18.219Z,96247.94
2023-03-06T07:28:52.280Z,96245.69
2023-03-06T07:31:19.261Z,96245.94
2023-03-06T07:33:45.751Z,96235.88
2023-03-06T07:36:13.788Z,96235.88
2023-03-06T07:38:40.509Z,96237.75
2023-03-06T07:41:10.091Z,96236.31
2023-03-06T07:43:36.617Z,96234.31
2023-03-06T07:46:03.060Z,96235.06
2023-03-06T07:48:29.570Z,96230.50
2023-03-06T07:50:56.011Z,96231.97
2023-03-06T07:53:22.395Z,96232.66
2023-03-06T07:55:48.973Z,96236.00
2023-03-06T07:58:15.455Z,96246.06
2023-03-06T08:00:41.871Z,96233.34
2023-03-06T08:03:08.383Z,96241.97
2023-03-06T08:05:34.841Z,96238.91
2023-03-06T08:08:01.212Z,96238.91
2023-03-06T08:10:27.584Z,96242.84
2023-03-06T08:12:53.975Z,96241.34
2023-03-06T08:15:20.346Z,96237.03
2023-03-06T08:17:46.744Z,96249.38
2023-03-06T08:20:13.196Z,96246.09
2023-03-06T08:22:39.737Z,96255.09
2023-03-06T08:25:06.175Z,96257.38
2023-03-06T08:27:32.712Z,96258.78
2023-03-06T08:29:59.116Z,96257.31
2023-03-06T08:35:05.792Z,96250.53
2023-03-06T08:37:34.497Z,96246.88
2023-03-06T08:40:01.006Z,96250.31
2023-03-06T08:42:27.499Z,96249.84
2023-03-06T08:44:53.910Z,96261.97
2023-03-06T08:47:20.290Z,96245.56
2023-03-06T08:49:46.781Z,96247.63
2023-03-06T08:52:13.197Z,96240.69
2023-03-06T08:54:39.556Z,96252.81
2023-03-06T08:57:06.100Z,96253.84
2023-03-06T08:59:32.607Z,96246.88
2023-03-06T09:01:59.072Z,96263.28
2023-03-06T09:04:25.538Z,96265.53
2023-03-06T09:06:53.134Z,96264.13
2023-03-06T09:09:22.425Z,96272.94
2023-03-06T09:11:48.830Z,96263.50
2023-03-06T09:14:15.348Z,96263.75
2023-03-06T09:16:41.797Z,96261.28
2023-03-06T09:19:08.297Z,96267.66
2023-03-06T09:21:34.768Z,96260.09
2023-03-06T09:24:01.211Z,96266.03
2023-03-06T09:26:39.645Z,96262.13
2023-03-06T09:29:11.248Z,96262.34
2023-03-06T09:31:37.736Z,96266.84
2023-03-06T09:34:05.092Z,96261.53
2023-03-06T09:36:31.516Z,96253.53
2023-03-06T09:38:57.908Z,96248.22
2023-03-06T09:41:24.403Z,96252.94
2023-03-06T09:43:50.848Z,96252.94
2023-03-06T09:46:17.263Z,96256.63
2023-03-06T09:48:43.630Z,96257.69
2023-03-06T09:51:10.021Z,96249.03
2023-03-06T09:53:36.396Z,96252.53
2023-03-06T09:56:02.760Z,96259.13
2023-03-06T09:58:29.204Z,96258.72
2023-03-06T10:00:55.584Z,96257.09
2023-03-06T10:03:21.976Z,96252.34
2023-03-06T10:05:48.392Z,96257.88
2023-03-06T10:08:14.820Z,96257.09
2023-03-06T10:10:41.188Z,96255.63
2023-03-06T10:13:07.613Z,96252.34
2023-03-06T10:15:34.181Z,96253.56
2023-03-06T10:18:00.654Z,96252.16
2023-03-06T10:20:27.089Z,96244.56
2023-03-06T10:23:01.063Z,96244.38
2023-03-06T10:25:30.544Z,96238.38
2023-03-06T10:27:56.964Z,96246.59
2023-03-06T10:30:23.425Z,96245.97
2023-03-06T10:32:50.115Z,96242.50
2023-03-06T10:35:16.537Z,96245.78
2023-03-06T10:37:42.887Z,96244.56
2023-03-06T10:40:09.476Z,96240.88
2023-03-06T10:42:35.898Z,96234.09
2023-03-06T10:45:02.512Z,96233.06
2023-03-06T10:47:29.026Z,96227.94
2023-03-06T10:49:55.468Z,96228.56
2023-03-06T10:52:23.969Z,96230.59
2023-03-06T10:54:50.389Z,96231.81
2023-03-06T10:57:16.857Z,96229.78
2023-03-06T10:59:43.278Z,96227.94
2023-03-06T11:02:09.723Z,96217.03
2023-03-06T11:04:36.395Z,96221.16
2023-03-06T11:07:02.838Z,96210.06
2023-03-06T11:09:29.215Z,96208.59
2023-03-06T11:11:55.630Z,96215.41
2023-03-06T11:14:22.007Z,96211.72
2023-03-06T11:16:48.444Z,96211.50
2023-03-06T11:19:14.802Z,96202.25
2023-03-06T11:21:41.239Z,96196.50
2023-03-06T11:24:07.728Z,96199.19
2023-03-06T11:26:34.112Z,96194.22
2023-03-06T11:29:00.614Z,96194.63
2023-03-06T11:31:27.017Z,96191.75
2023-03-06T11:33:53.614Z,96189.91
2023-03-06T11:36:20.046Z,96187.03
2023-03-06T11:38:46.396Z,96184.97
2023-03-06T11:41:12.863Z,96184.38
2023-03-06T11:43:39.234Z,96182.09
2023-03-06T11:46:05.612Z,96177.97
2023-03-06T11:48:32.081Z,96170.97
2023-03-06T11:50:58.537Z,96175.91
2023-03-06T11:53:24.917Z,96176.53
2023-03-06T11:55:51.387Z,96170.78
2023-03-06T11:58:17.746Z,96170.78
2023-03-06T12:00:44.148Z,96162.97
2023-03-06T12:03:10.528Z,96161.47
2023-03-06T12:05:36.978Z,96151.00
2023-03-06T12:08:03.512Z,96149.59
2023-03-06T12:10:29.920Z,96145.06
2023-03-06T12:12:57.487Z,96148.97
2023-03-06T12:15:23.920Z,96140.72
2023-03-06T12:17:50.332Z,96136.19
2023-03-06T12:20:16.773Z,96135.31
2023-03-06T12:22:44.364Z,96134.28
2023-03-06T12:25:12.789Z,96131.22
2023-03-06T12:27:39.168Z,96127.69
2023-03-06T12:30:05.595Z,96120.88
2023-03-06T12:32:32.039Z,96122.75
2023-03-06T12:34:58.544Z,96119.84
2023-03-06T12:37:24.964Z,96117.63
2023-03-06T12:39:51.341Z,96121.69
2023-03-06T12:42:23.086Z,96115.91
2023-03-06T12:44:50.056Z,96116.53
2023-03-06T12:47:16.480Z,96108.97
2023-03-06T12:49:42.894Z,96105.63
2023-03-06T12:52:09.828Z,96100.25
2023-03-06T12:54:36.301Z,96100.22
2023-03-06T12:57:02.745Z,96088.88
2023-03-06T12:59:29.137Z,96077.78
2023-03-06T13:01:55.562Z,96085.00
2023-03-06T13:04:22.096Z,96074.66
2023-03-06T13:06:50.719Z,96083.06
2023-03-06T13:09:17.702Z,96085.47
2023-03-06T13:11:44.119Z,96079.09
2023-03-06T13:14:10.497Z,96073.63
2023-03-06T13:16:36.926Z,96072.22
2023-03-06T13:19:03.439Z,96064.56
2023-03-06T13:21:29.893Z,96075.25
2023-03-06T13:23:56.292Z,96063.88
2023-03-06T13:26:22.704Z,96064.69
2023-03-06T13:28:49.155Z,96065.56
2023-03-06T13:31:27.031Z,96060.47
2023-03-06T13:33:54.035Z,96061.91
2023-03-06T13:36:20.383Z,96058.50
2023-03-06T13:38:46.742Z,96051.47
2023-03-06T13:41:13.204Z,96050.31
2023-03-06T13:43:39.638Z,96050.47
2023-03-06T13:46:06.074Z,96048.53
2023-03-06T13:48:47.819Z,96049.94
2023-03-06T13:51:14.316Z,96052.94
2023-03-06T13:53:40.789Z,96050.28
2023-03-06T13:56:07.311Z,96045.25
2023-03-06T13:58:33.699Z,96049.84
2023-03-06T14:01:00.072Z,96043.25
2023-03-06T14:03:26.498Z,96047.91
2023-03-06T14:05:52.864Z,96042.72
2023-03-06T14:08:19.302Z,96032.50
2023-03-06T14:10:45.730Z,96037.81
2023-03-06T14:13:12.142Z,96034.19
2023-03-06T14:15:38.591Z,96029.81
2023-03-06T14:18:04.969Z,96022.38
2023-03-06T14:20:31.409Z,96027.53
2023-03-06T14:22:57.750Z,96017.03
2023-03-06T14:25:24.108Z,96027.25
2023-03-06T14:27:50.530Z,96028.06
2023-03-06T14:30:16.946Z,96020.31
2023-03-06T14:32:43.428Z,96011.94
2023-03-06T14:35:09.881Z,96011.94
2023-03-06T14:37:36.294Z,96007.78
2023-03-06T14:40:02.662Z,95995.88
2023-03-06T14:42:29.031Z,96004.66
2023-03-06T14:44:55.507Z,96005.25
2023-03-06T14:47:22.103Z,96002.53
2023-03-06T14:49:48.553Z,95999.44
2023-03-06T14:52:15.029Z,96003.16
2023-03-06T14:54:41.428Z,95992.09
2023-03-06T14:57:07.858Z,95993.25
2023-03-06T14:59:34.385Z,95991.81
2023-03-06T15:02:00.835Z,95984.88
2023-03-06T15:04:27.322Z,95995.72
2023-03-06T15:06:53.737Z,95983.50
2023-03-06T15:09:20.118Z,95988.84
2023-03-06T15:11:46.552Z,95992.91
2023-03-06T15:14:12.972Z,95987.44
2023-03-06T15:16:39.329Z,95980.09
2023-03-06T15:19:05.732Z,95973.13
2023-03-06T15:21:32.078Z,95988.38
2023-03-06T15:23:58.551Z,95979.78
2023-03-06T15:26:24.961Z,95992.13
2023-03-06T15:28:54.284Z,95984.81
2023-03-06T15:31:23.188Z,95983.91
2023-03-06T15:33:49.538Z,95982.13
2023-03-06T15:36:15.908Z,95979.44
2023-03-06T15:38:42.292Z,95986.44
2023-03-06T15:41:08.647Z,95977.06
2023-03-06T15:43:35.024Z,95981.94
2023-03-06T15:46:01.435Z,95978.78
2023-03-06T15:48:27.785Z,95991.66
2023-03-06T15:50:54.184Z,95980.47
2023-03-06T15:53:20.722Z,95988.19
2023-03-06T15:55:47.236Z,95976.25
2023-03-06T15:58:13.642Z,95996.38
2023-03-06T16:00:40.063Z,95997.66
2023-03-06T16:03:06.498Z,95989.56
2023-03-06T16:05:32.854Z,95985.25
2023-03-06T16:07:59.276Z,95995.28
2023-03-06T16:10:25.749Z,95996.00
2023-03-06T16:12:52.158Z,95991.94
2023-03-06T16:15:18.519Z,95996.28
2023-03-06T16:17:44.945Z,95995.66
2023-03-06T16:20:11.398Z,95995.31
2023-03-06T16:22:37.776Z,95996.28
2023-03-06T16:25:04.300Z,95993.09
2023-03-06T16:27:30.693Z,95991.22
2023-03-06T16:29:57.030Z,95998.34
2023-03-06T16:32:23.490Z,95991.03
2023-03-06T16:34:49.962Z,95995.16
2023-03-06T16:37:16.354Z,95997.13
2023-03-06T16:39:42.744Z,95993.06
2023-03-06T16:42:09.092Z,95984.69
2023-03-06T16:44:35.501Z,95996.47
2023-03-06T16:47:01.947Z,95991.28
2023-03-06T16:49:28.315Z,96000.09
2023-03-06T16:51:54.678Z,96001.28
2023-03-06T16:54:21.049Z,96000.84
2023-03-06T16:56:47.464Z,96003.31
2023-03-06T16:59:14.028Z,96003.97
2023-03-06T17:01:40.460Z,96019.28
2023-03-06T17:04:06.885Z,96021.63
2023-03-06T17:06:33.320Z,96024.53
2023-03-06T17:08:59.684Z,96027.19
2023-03-06T17:11:26.088Z,96032.41
2023-03-06T17:13:52.409Z,96031.47
2023-03-06T17:16:18.844Z,96037.66
2023-03-06T17:18:45.341Z,96031.03
2023-03-06T17:21:11.716Z,96034.09
2023-03-06T17:23:38.067Z,96037.78
2023-03-06T17:26:04.459Z,96039.47
2023-03-06T17:28:30.803Z,96045.81
2023-03-06T17:30:57.221Z,96043.00
2023-03-06T17:33:23.602Z,96050.28
2023-03-06T17:35:50.147Z,96045.31
2023-03-06T17:38:16.528Z,96061.88
2023-03-06T17:40:42.904Z,96058.41
2023-03-06T17:43:09.388Z,96060.78
2023-03-06T17:45:35.862Z,96072.38
2023-03-06T17:48:02.215Z,96064.56
2023-03-06T17:50:28.645Z,96070.00
2023-03-06T17:52:55.174Z,96075.72
2023-03-06T17:55:21.557Z,96075.13
2023-03-06T17:57:48.030Z,96088.94
2023-03-06T18:00:14.491Z,96080.91
2023-03-06T18:02:40.924Z,96102.03
2023-03-06T18:05:07.403Z,96100.06
2023-03-06T18:07:33.834Z,96100.06
2023-03-06T18:10:00.228Z,96110.19
2023-03-06T18:12:26.637Z,96119.38
2023-03-06T18:14:53.045Z,96121.19
2023-03-06T18:17:19.580Z,96126.84
2023-03-06T18:19:45.935Z,96134.22
2023-03-06T18:22:12.331Z,96141.50
2023-03-06T18:24:38.686Z,96136.13
2023-03-06T18:27:05.117Z,96143.69
2023-03-06T18:29:31.577Z,96142.78
2023-03-06T18:31:58.042Z,96148.97
2023-03-06T18:34:24.487Z,96139.91
2023-03-06T18:36:50.861Z,96154.63
2023-03-06T18:39:17.286Z,96158.97
2023-03-06T18:41:43.733Z,96156.50
2023-03-06T18:44:10.161Z,96155.47
2023-03-06T18:46:36.530Z,96159.94
2023-03-06T18:49:02.923Z,96169.56
2023-03-06T18:51:29.344Z,96165.69
2023-03-06T18:53:55.678Z,96165.47
2023-03-06T18:56:22.083Z,96174.78
2023-03-06T18:58:48.639Z,96175.69
2023-03-06T19:01:15.155Z,96185.25
2023-03-06T19:03:41.580Z,96183.25
2023-03-06T19:06:07.994Z,96187.84
2023-03-06T19:08:34.435Z,96192.34
2023-03-06T19:11:00.868Z,96190.13
2023-03-06T19:13:27.250Z,96193.66
2023-03-06T19:15:53.591Z,96193.25
2023-03-06T19:18:20.007Z,96200.97
2023-03-06T19:20:46.459Z,96201.34
2023-03-06T19:23:12.848Z,96202.78
2023-03-06T19:25:39.303Z,96203.28
2023-03-06T19:28:05.747Z,96206.34
2023-03-06T19:30:32.466Z,96214.88
2023-03-06T19:32:58.904Z,96202.50
2023-03-06T19:35:25.294Z,96199.59
2023-03-06T19:37:51.782Z,96190.97
2023-03-06T19:40:18.240Z,96195.53
2023-03-06T19:42:44.654Z,96200.31
2023-03-06T19:45:11.104Z,96198.91
2023-03-06T19:47:37.606Z,96200.97
2023-03-06T19:50:04.013Z,96203.88
2023-03-06T19:52:30.417Z,96208.25
2023-03-06T19:54:56.955Z,96211.38
2023-03-06T19:57:23.353Z,96209.72
2023-03-06T19:59:49.847Z,96218.84
2023-03-06T20:02:16.265Z,96217.88
2023-03-06T20:04:42.706Z,96213.38
2023-03-06T20:07:09.138Z,96208.06
2023-03-06T20:09:35.578Z,96206.41
2023-03-06T20:12:01.916Z,96206.84
2023-03-06T20:14:28.350Z,96213.22
2023-03-06T20:16:54.913Z,96219.25
2023-03-06T20:19:21.412Z,96220.50
2023-03-06T20:21:47.772Z,96217.81
2023-03-06T20:24:14.101Z,96215.78
2023-03-06T20:26:40.455Z,96223.25
2023-03-06T20:29:07.019Z,96233.34
2023-03-06T20:31:33.484Z,96235.19
2023-03-06T20:33:59.934Z,96235.19
2023-03-06T20:36:26.327Z,96226.31
2023-03-06T20:38:52.737Z,96233.75
2023-03-06T20:41:19.225Z,96240.53
2023-03-06T20:43:45.586Z,96243.59
2023-03-06T20:46:12.035Z,96250.19
2023-03-06T20:48:38.552Z,96250.03
2023-03-06T20:51:06.407Z,96250.06
2023-03-06T20:53:32.745Z,96246.16
2023-03-06T20:55:59.291Z,96247.59
2023-03-06T20:58:25.846Z,96241.63
2023-03-06T21:00:52.213Z,96243.31
2023-03-06T21:03:18.600Z,96246.81
2023-03-06T21:05:45.009Z,96238.63
2023-03-06T21:08:11.396Z,96243.56
2023-03-06T21:10:37.802Z,96244.00
2023-03-06T21:13:04.227Z,96240.06
2023-03-06T21:15:30.587Z,96239.44
2023-03-06T21:17:56.953Z,96234.09
2023-03-06T21:20:23.415Z,96237.19
2023-03-06T21:22:49.790Z,96237.84
2023-03-06T21:25:16.190Z,96241.94
2023-03-06T21:27:42.669Z,96245.44
2023-03-06T21:30:09.096Z,96239.28
2023-03-06T21:32:35.592Z,96233.72
2023-03-06T21:35:04.732Z,96232.50
2023-03-06T21:37:31.135Z,96233.53
2023-03-06T21:39:57.557Z,96233.72
2023-03-06T21:42:26.647Z,96237.84
2023-03-06T21:44:53.187Z,96234.16
2023-03-06T21:47:19.658Z,96234.97
2023-03-06T21:49:49.037Z,96223.88
2023-03-06T21:52:15.411Z,96218.13
2023-03-06T21:54:41.776Z,96222.88
2023-03-06T21:57:08.314Z,96225.34
2023-03-06T21:59:34.665Z,96222.28
2023-03-06T22:02:01.076Z,96223.47
2023-03-06T22:04:27.445Z,96223.31
2023-03-06T22:06:53.850Z,96218.38
2023-03-06T22:09:20.196Z,96214.91
2023-03-06T22:11:46.559Z,96211.81
2023-03-06T22:14:13.102Z,96213.25
2023-03-06T22:16:39.511Z,96213.25
2023-03-06T22:19:05.879Z,96202.13
2023-03-06T22:21:32.236Z,96208.13
2023-03-06T22:23:58.668Z,96198.44
2023-03-06T22:26:25.074Z,96195.97
2023-03-06T22:28:51.450Z,96196.81
2023-03-06T22:31:17.900Z,96202.75
2023-03-06T22:33:44.402Z,96204.19
2023-03-06T22:36:10.792Z,96205.44
2023-03-06T22:38:37.190Z,96206.06
2023-03-06T22:41:03.600Z,96199.69
2023-03-06T22:43:29.956Z,96202.75
2023-03-06T22:45:56.366Z,96206.28
2023-03-06T22:48:22.761Z,96200.94
2023-03-06T22:50:49.123Z,96196.41
2023-03-06T22:53:15.462Z,96186.34
2023-03-06T22:55:41.809Z,96188.84
2023-03-06T22:58:10.300Z,96195.81
2023-03-06T23:00:36.668Z,96194.78
2023-03-06T23:03:03.158Z,96192.75
2023-03-06T23:05:29.632Z,96197.66
2023-03-06T23:07:55.974Z,96198.91
2023-03-06T23:10:22.345Z,96192.09
2023-03-06T23:12:48.697Z,96194.56
2023-03-06T23:15:15.074Z,96203.00
2023-03-06T23:17:41.402Z,96187.56
2023-03-06T23:20:07.734Z,96181.63
2023-03-06T23:22:34.115Z,96187.78
2023-03-06T23:25:00.485Z,96191.50
2023-03-06T23:27:26.888Z,96185.97
2023-03-06T23:29:55.519Z,96183.88
2023-03-06T23:32:21.963Z,96183.72
2023-03-06T23:34:48.440Z,96165.81
2023-03-06T23:37:14.866Z,96171.16
2023-03-06T23:39:41.241Z,96171.34
2023-03-06T23:42:07.585Z,96170.94
2023-03-06T23:44:34.195Z,96176.28
2023-03-06T23:47:00.610Z,96188.22
2023-03-06T23:49:26.957Z,96184.13
2023-03-06T23:51:53.312Z,96193.16
2023-03-06T23:54:19.700Z,96177.50
2023-03-06T23:56:46.044Z,96184.09
2023-03-06T23:59:12.456Z,96190.06
